Time;durP1;ratioP1;P1;durP2;ratioP2;P2;SDS_P1;SDS_P2;PMS_P1;PMS_P2;Temp;Humidity;BMP_temperature;BMP_pressure;BME280_temperature;BME280_humidity;BME280_pressure;Samples;Min_cycle;Max_cycle;Signal;HPM_P1;HPM_P2
2021/08/19 05:32:19;;;;;;;;;41.67;36.67;;;;;26.67;62.24;100390.56;5997872;23;8743;31
2021/08/19 05:34:47;;;;;;;;;45.00;38.20;;;;;26.53;60.77;100391.75;4880219;29;8957;-82
2021/08/19 05:37:43;;;;;;;;;44.00;38.00;;;;;26.72;61.04;100381.50;4908449;29;8965;-79
2021/08/19 05:40:39;;;;;;;;;47.25;39.75;;;;;26.87;61.85;100383.47;4898038;29;8870;-81
2021/08/19 05:43:34;;;;;;;;;49.25;41.75;;;;;26.85;60.70;100374.63;4885298;29;8866;-80
2021/08/19 05:46:30;;;;;;;;;46.00;39.00;;;;;26.96;61.65;100371.44;4887062;29;8950;-87
2021/08/19 05:49:26;;;;;;;;;47.20;38.80;;;;;26.93;60.08;100369.53;4909765;29;9632;-88
2021/08/19 05:52:21;;;;;;;;;49.25;40.50;;;;;26.70;58.64;100378.31;4899988;29;8851;-87
2021/08/19 05:55:32;;;;;;;;;30.50;24.25;;;;;27.09;59.22;100382.88;4899498;29;8857;-87
2021/08/19 05:58:27;;;;;;;;;52.25;43.25;;;;;27.34;60.32;100373.56;4902931;29;9643;-84
2021/08/19 06:01:23;;;;;;;;;48.00;38.75;;;;;27.64;59.95;100380.72;4899364;29;8894;-87
2021/08/19 06:04:19;;;;;;;;;61.75;50.75;;;;;27.76;60.51;100373.44;4886327;29;8884;-86
2021/08/19 06:07:14;;;;;;;;;56.25;46.00;;;;;27.81;60.23;100373.66;4898829;29;8882;-85
2021/08/19 06:10:13;;;;;;;;;62.75;50.00;;;;;27.88;61.61;100375.47;4887944;29;8882;-87
2021/08/19 06:13:09;;;;;;;;;64.25;50.75;;;;;28.00;61.33;100373.88;4899559;29;8874;-86
2021/08/19 06:16:05;;;;;;;;;59.75;48.50;;;;;28.08;61.58;100383.75;4886448;29;8961;-86
2021/08/19 06:19:02;;;;;;;;;61.75;48.75;;;;;28.11;62.62;100380.75;4896497;29;8890;-82
2021/08/19 06:21:58;;;;;;;;;57.50;47.00;;;;;28.31;62.25;100386.19;4910030;29;8877;-83
2021/08/19 06:24:55;;;;;;;;;60.50;48.50;;;;;28.41;61.30;100376.47;4886594;29;8878;-84
2021/08/19 06:27:51;;;;;;;;;66.00;51.50;;;;;28.56;60.99;100381.66;4898637;29;8885;-85
2021/08/19 06:30:47;;;;;;;;;62.25;51.00;;;;;28.59;61.27;100386.41;4898501;29;9670;-86
2021/08/19 06:33:43;;;;;;;;;70.00;60.00;;;;;28.48;61.64;100381.91;4876693;29;9291;-86
2021/08/19 06:36:38;;;;;;;;;62.50;50.50;;;;;28.55;60.89;100385.75;4879013;29;8868;-84
2021/08/19 06:39:34;;;;;;;;;65.00;50.25;;;;;28.52;59.88;100390.31;4878987;29;8875;-86
2021/08/19 06:42:30;;;;;;;;;59.25;48.25;;;;;28.65;59.15;100382.50;4880763;29;8860;-86
2021/08/19 06:45:26;;;;;;;;;53.00;43.40;;;;;28.75;58.73;100374.81;4889095;29;8848;-86
2021/08/19 06:48:21;;;;;;;;;55.75;45.25;;;;;28.70;59.19;100375.44;4891250;29;8880;-86
2021/08/19 06:51:17;;;;;;;;;51.25;42.50;;;;;28.96;58.36;100379.75;4893170;29;8894;-86
2021/08/19 06:54:12;;;;;;;;;49.40;41.40;;;;;29.13;58.27;100368.13;4879906;29;8991;-88
2021/08/19 06:57:08;;;;;;;;;59.25;48.75;;;;;29.11;57.79;100374.28;4880847;29;9102;-84
2021/08/19 07:00:05;;;;;;;;;54.50;44.75;;;;;29.12;57.66;100375.09;4901364;29;8903;-87
2021/08/19 07:03:01;;;;;;;;;56.25;45.50;;;;;29.23;57.43;100375.47;4890634;29;8928;-87
2021/08/19 07:05:56;;;;;;;;;56.40;45.60;;;;;29.45;56.35;100376.19;4879870;29;8863;-83
2021/08/19 07:08:52;;;;;;;;;48.40;40.60;;;;;29.47;56.04;100370.03;4879345;29;8876;-86
2021/08/19 07:11:49;;;;;;;;;53.60;44.00;;;;;29.65;56.05;100380.72;4890532;29;8878;-88
2021/08/19 07:14:44;;;;;;;;;61.00;49.75;;;;;29.70;56.04;100380.09;4890579;29;8852;-85
2021/08/19 07:17:40;;;;;;;;;67.75;56.00;;;;;29.72;55.66;100369.81;4878749;29;8884;-88
2021/08/19 07:20:36;;;;;;;;;62.25;49.75;;;;;29.89;55.39;100368.25;4878688;29;8860;-85
2021/08/19 07:23:32;;;;;;;;;68.00;55.00;;;;;29.88;54.48;100380.16;4890578;29;8882;-86
2021/08/19 07:26:27;;;;;;;;;59.00;47.25;;;;;29.86;54.60;100376.97;4889198;29;8848;-87
2021/08/19 07:29:23;;;;;;;;;56.25;46.75;;;;;29.98;54.21;100378.91;4890587;29;9010;-85
2021/08/19 07:32:20;;;;;;;;;64.00;50.25;;;;;30.16;54.02;100381.81;4878814;29;8871;-85
2021/08/19 07:35:16;;;;;;;;;64.50;51.75;;;;;30.25;53.94;100377.38;4897475;29;8866;-87
2021/08/19 07:38:15;;;;;;;;;62.50;50.75;;;;;30.25;53.59;100380.22;4884585;29;8878;-84
2021/08/19 07:41:10;;;;;;;;;59.50;47.50;;;;;30.04;53.81;100381.91;4896107;29;8858;-86
2021/08/19 07:44:06;;;;;;;;;57.80;48.20;;;;;30.46;53.72;100379.28;4898371;29;8913;-85
2021/08/19 07:47:01;;;;;;;;;63.00;50.50;;;;;30.36;53.05;100378.47;4885493;29;8878;-87
2021/08/19 07:49:57;;;;;;;;;63.50;51.00;;;;;30.64;53.69;100378.47;4886597;29;8862;-87
2021/08/19 07:52:53;;;;;;;;;66.00;52.00;;;;;30.72;53.29;100377.69;4889745;29;8863;-87
2021/08/19 07:55:48;;;;;;;;;60.00;49.50;;;;;31.06;51.84;100375.75;4900267;29;9654;-85
2021/08/19 07:58:44;;;;;;;;;58.25;47.25;;;;;31.18;51.96;100380.44;4889084;29;8918;-88
2021/08/19 08:01:40;;;;;;;;;67.00;52.25;;;;;31.29;50.65;100376.34;4887647;29;8897;-88
2021/08/19 08:04:35;;;;;;;;;62.25;49.50;;;;;31.35;50.58;100374.38;4900733;29;8894;-81
2021/08/19 08:07:31;;;;;;;;;63.50;50.00;;;;;31.52;50.29;100362.09;4910814;29;8858;-85
2021/08/19 08:10:28;;;;;;;;;66.80;50.80;;;;;31.76;50.04;100364.97;4888614;29;8874;-85
2021/08/19 08:13:23;;;;;;;;;62.20;49.60;;;;;31.96;49.32;100370.09;4900078;29;8890;-85
2021/08/19 08:16:19;;;;;;;;;67.60;51.20;;;;;31.92;48.93;100368.72;4900909;29;8893;-82
2021/08/19 08:19:18;;;;;;;;;59.00;47.40;;;;;31.78;48.34;100361.66;4899728;29;8862;-85
2021/08/19 08:22:14;;;;;;;;;60.20;46.20;;;;;32.00;48.08;100358.50;4899767;29;8894;-83
2021/08/19 08:25:10;;;;;;;;;53.60;45.00;;;;;32.06;48.73;100359.41;4910595;29;8868;-86
2021/08/19 08:28:14;;;;;;;;;48.00;41.00;;;;;32.28;48.46;100354.16;4901020;29;8901;-86
2021/08/19 08:31:10;;;;;;;;;42.80;36.00;;;;;32.47;47.96;100348.28;4900405;29;8881;-84
2021/08/19 08:34:05;;;;;;;;;51.00;42.00;;;;;32.70;46.88;100347.44;4910270;29;8877;-85
2021/08/19 08:37:02;;;;;;;;;55.00;43.60;;;;;32.47;46.49;100351.16;4900574;29;8904;-86
2021/08/19 08:39:58;;;;;;;;;66.60;51.20;;;;;32.57;46.95;100332.59;4900548;29;8871;-85
2021/08/19 08:42:54;;;;;;;;;63.20;49.20;;;;;32.68;46.62;100335.69;4900415;29;8913;-86
2021/08/19 08:45:51;;;;;;;;;53.80;40.60;;;;;32.77;46.27;100334.81;4900729;29;8983;-87
2021/08/19 08:48:50;;;;;;;;;54.40;44.00;;;;;32.88;46.20;100337.88;4886739;29;8985;-84
2021/08/19 08:51:51;;;;;;;;;51.60;43.20;;;;;32.83;45.93;100333.63;4910166;29;8866;-88
2021/08/19 08:54:50;;;;;;;;;58.40;46.00;;;;;33.03;45.44;100332.13;4897160;29;8859;-82
2021/08/19 08:57:46;;;;;;;;;63.40;47.40;;;;;32.73;45.94;100326.38;4912429;29;8993;-83
2021/08/19 09:00:44;;;;;;;;;62.20;47.20;;;;;32.79;45.83;100323.63;4908968;29;8882;-81
2021/08/19 09:03:41;;;;;;;;;55.40;44.40;;;;;32.95;45.31;100325.25;4902797;29;8926;-83
2021/08/19 09:06:39;;;;;;;;;53.80;42.40;;;;;32.82;44.98;100317.72;4900711;29;8887;-79
2021/08/19 09:09:34;;;;;;;;;59.80;46.40;;;;;32.98;45.38;100316.47;4881642;29;8907;-82
2021/08/19 09:12:37;;;;;;;;;59.20;46.20;;;;;33.11;44.93;100319.78;4881005;29;8849;-79
2021/08/19 09:15:33;;;;;;;;;52.20;43.40;;;;;33.49;44.99;100318.03;4880254;29;8884;-78
2021/08/19 09:18:34;;;;;;;;;53.40;43.60;;;;;33.79;44.31;100318.72;4896337;29;9750;-80
2021/08/19 09:21:30;;;;;;;;;52.60;43.80;;;;;33.67;43.68;100314.16;4894320;29;9000;-80
2021/08/19 09:24:35;;;;;;;;;53.80;43.60;;;;;34.07;43.46;100318.31;4897693;29;8957;-80
2021/08/19 09:27:35;;;;;;;;;46.00;38.20;;;;;34.17;43.09;100320.53;4914683;29;8971;-78
2021/08/19 09:30:05;;;;;;;;;54.80;42.80;;;;;34.14;42.60;100324.41;4888951;29;8921;-83
2021/08/19 09:32:32;;;;;;;;;53.00;42.80;;;;;34.04;42.34;100325.06;4898983;29;8878;-80
2021/08/19 09:35:12;;;;;;;;;58.20;45.60;;;;;34.15;43.54;100323.13;4912532;29;9627;-80
2021/08/19 09:37:53;;;;;;;;;51.80;41.00;;;;;34.21;42.39;100317.47;4899047;29;8923;-81
2021/08/19 09:41:11;;;;;;;;;47.40;39.20;;;;;34.66;42.10;100323.69;4899315;29;8871;-80
2021/08/19 09:44:07;;;;;;;;;38.00;28.00;;;;;34.10;42.37;100326.72;4899168;29;8984;-82
2021/08/19 09:47:05;;;;;;;;;51.20;42.80;;;;;34.52;42.10;100323.31;4899158;29;8900;-81
2021/08/19 09:50:19;;;;;;;;;49.20;40.60;;;;;34.78;41.60;100326.16;4898482;29;8866;-84
2021/08/19 09:53:23;;;;;;;;;48.80;40.40;;;;;35.04;41.26;100322.47;4910827;29;8878;-85
2021/08/19 09:56:30;;;;;;;;;45.20;37.00;;;;;35.35;40.41;100321.66;4886295;29;8883;-84
2021/08/19 09:59:20;;;;;;;;;46.00;37.40;;;;;35.55;39.44;100320.78;4897315;29;8858;-82
2021/08/19 10:02:16;;;;;;;;;47.80;37.80;;;;;35.74;39.40;100313.31;4899186;29;8889;-81
2021/08/19 10:04:44;;;;;;;;;45.80;37.40;;;;;35.49;38.94;100315.00;4898504;29;9608;-81
2021/08/19 10:07:12;;;;;;;;;46.60;39.20;;;;;35.36;39.56;100320.38;4898371;29;9636;-81
2021/08/19 10:09:55;;;;;;;;;45.60;39.00;;;;;35.53;39.42;100318.44;4898400;29;8901;-83
2021/08/19 10:12:54;;;;;;;;;51.40;41.00;;;;;35.35;39.33;100325.34;4898483;29;8867;-81
2021/08/19 10:15:23;;;;;;;;;49.40;39.20;;;;;35.17;39.54;100322.06;4897675;29;8866;-80
2021/08/19 10:18:28;;;;;;;;;47.20;37.80;;;;;35.06;39.22;100325.66;4896214;29;9692;-82
2021/08/19 10:21:29;;;;;;;;;39.40;33.80;;;;;35.02;39.93;100325.88;4915902;29;8887;-81
2021/08/19 10:24:46;;;;;;;;;49.80;41.00;;;;;35.17;38.98;100319.97;4878290;29;8879;-81
2021/08/19 10:27:18;;;;;;;;;45.20;37.40;;;;;35.34;38.71;100317.22;4882090;29;8893;-84
2021/08/19 10:30:22;;;;;;;;;39.60;32.60;;;;;35.38;39.07;100318.56;4879890;29;8888;-80
2021/08/19 10:32:52;;;;;;;;;41.80;35.60;;;;;35.07;39.85;100301.38;4880077;29;8897;-81
2021/08/19 10:35:48;;;;;;;;;38.60;33.80;;;;;34.75;39.29;100306.28;4894312;29;8884;-80
2021/08/19 10:38:25;;;;;;;;;43.00;36.00;;;;;34.95;38.81;100296.81;4895930;29;8964;-81
2021/08/19 10:41:29;;;;;;;;;48.00;39.40;;;;;35.08;38.59;100294.31;4895619;29;8866;-79
2021/08/19 10:44:44;;;;;;;;;55.00;45.20;;;;;35.13;39.37;100304.28;4897001;29;8898;-80
2021/08/19 10:47:38;;;;;;;;;52.80;44.20;;;;;35.31;38.11;100298.13;4896857;29;8858;-79
2021/08/19 10:50:25;;;;;;;;;48.80;39.60;;;;;35.62;38.18;100298.09;4896317;29;8863;-80
2021/08/19 10:53:28;;;;;;;;;52.00;41.00;;;;;35.54;37.00;100287.59;4918519;29;8885;-81
2021/08/19 10:56:45;;;;;;;;;51.20;41.40;;;;;35.81;37.04;100286.13;4879263;29;8862;-80
2021/08/19 10:59:33;;;;;;;;;44.00;37.80;;;;;35.80;36.63;100275.94;4896433;29;8870;-81
2021/08/19 11:02:02;;;;;;;;;54.60;43.20;;;;;35.82;36.54;100282.75;4884097;29;8871;-83
2021/08/19 11:04:44;;;;;;;;;59.80;44.80;;;;;35.81;36.04;100271.75;4896682;29;8870;-81
2021/08/19 11:07:44;;;;;;;;;51.00;40.60;;;;;36.01;36.34;100267.94;4897662;29;8858;-80
2021/08/19 11:10:19;;;;;;;;;52.20;41.60;;;;;36.01;37.39;100267.94;4899357;29;8917;-80
2021/08/19 11:13:15;;;;;;;;;51.00;40.80;;;;;35.97;36.94;100256.69;4898531;29;8992;-81
2021/08/19 11:16:13;;;;;;;;;49.60;40.60;;;;;36.36;36.75;100267.50;4902723;29;8950;-78
2021/08/19 11:19:30;;;;;;;;;41.60;34.60;;;;;36.47;36.49;100256.81;4896393;29;8863;-79
2021/08/19 11:22:03;;;;;;;;;37.00;32.80;;;;;36.51;36.23;100262.31;4885644;29;8912;-79
2021/08/19 11:24:59;;;;;;;;;43.80;37.60;;;;;36.46;36.29;100265.97;4898517;29;8874;-80
2021/08/19 11:27:55;;;;;;;;;47.40;38.40;;;;;36.56;36.57;100267.28;4900188;29;8915;-78
2021/08/19 11:30:51;;;;;;;;;46.80;39.00;;;;;36.35;36.83;100260.97;4902214;29;9672;-78
2021/08/19 11:33:25;;;;;;;;;41.60;33.60;;;;;36.69;35.88;100252.38;4916608;29;8869;-78
2021/08/19 11:36:00;;;;;;;;;32.40;30.00;;;;;37.02;34.69;100243.72;4901308;29;8862;-78
2021/08/19 11:38:28;;;;;;;;;30.60;29.20;;;;;36.77;35.45;100244.78;4895301;29;8941;-79
2021/08/19 11:41:14;;;;;;;;;26.00;26.00;;;;;36.47;36.02;100238.75;4901285;29;8866;-79
2021/08/19 11:44:09;;;;;;;;;26.80;26.80;;;;;36.57;36.20;100230.63;4901679;29;8867;-80
2021/08/19 11:46:38;;;;;;;;;27.80;27.60;;;;;36.58;36.02;100229.31;4896960;29;9756;-80
2021/08/19 11:49:12;;;;;;;;;23.20;23.20;;;;;36.69;35.98;100212.06;4899729;29;8883;-79
2021/08/19 11:51:42;;;;;;;;;26.80;26.60;;;;;36.79;35.98;100203.91;4900938;29;8858;-79
2021/08/19 11:54:50;;;;;;;;;28.00;27.20;;;;;36.62;36.38;100204.72;4916582;29;8890;-82
2021/08/19 11:57:46;;;;;;;;;20.40;18.80;;;;;36.91;36.36;100206.28;4912749;29;8910;-79
2021/08/19 12:00:15;;;;;;;;;28.60;27.60;;;;;37.05;36.15;100213.09;4901116;29;8879;-81
2021/08/19 12:02:43;;;;;;;;;25.40;25.40;;;;;36.53;36.44;100205.00;4902207;29;8954;-79
2021/08/19 12:05:38;;;;;;;;;30.80;29.20;;;;;36.04;37.22;100210.16;4903604;29;8903;-81
2021/08/19 12:08:46;;;;;;;;;33.20;31.00;;;;;35.44;38.18;100195.03;4903399;29;8886;-79
2021/08/19 12:11:45;;;;;;;;;37.40;33.60;;;;;35.25;38.86;100191.75;4899429;29;8875;-79
2021/08/19 12:14:42;;;;;;;;;31.00;29.60;;;;;34.87;38.86;100193.06;4910866;29;9662;-81
2021/08/19 12:17:39;;;;;;;;;34.60;31.60;;;;;34.51;39.86;100186.81;4900049;29;8929;-79
2021/08/19 12:20:16;;;;;;;;;41.80;34.80;;;;;34.28;40.39;100188.66;4900710;29;9702;-80
2021/08/19 12:23:26;;;;;;;;;42.00;32.00;;;;;33.57;41.96;100198.81;4899383;29;9056;-78
2021/08/19 12:26:24;;;;;;;;;37.20;32.80;;;;;33.66;41.77;100195.00;4903148;29;8881;-79
2021/08/19 12:29:19;;;;;;;;;39.20;34.80;;;;;33.33;42.16;100193.25;4909223;29;8875;-81
2021/08/19 12:32:02;;;;;;;;;44.00;37.40;;;;;33.09;42.52;100181.22;4899896;29;8873;-78
2021/08/19 12:34:55;;;;;;;;;47.20;38.80;;;;;32.88;42.93;100178.31;4909219;29;8866;-81
2021/08/19 12:37:23;;;;;;;;;25.40;24.20;;;;;32.83;44.06;100184.72;4904615;29;8865;-80
2021/08/19 12:40:20;;;;;;;;;27.20;27.00;;;;;32.59;44.75;100182.00;4911654;29;8896;-82
2021/08/19 12:43:20;;;;;;;;;29.80;28.80;;;;;32.40;45.56;100179.84;4911368;29;8861;-81
2021/08/19 12:46:16;;;;;;;;;30.80;29.00;;;;;32.28;46.06;100178.81;4916601;29;8982;-78
2021/08/19 12:49:39;;;;;;;;;26.80;26.80;;;;;31.80;47.86;100190.44;4917107;29;8868;-81
2021/08/19 12:52:36;;;;;;;;;30.40;29.40;;;;;31.59;49.83;100220.09;4911826;29;8972;-79
2021/08/19 12:55:32;;;;;;;;;22.40;22.40;;;;;31.17;51.95;100238.13;4900072;29;8850;-79
2021/08/19 12:58:32;;;;;;;;;30.60;29.00;;;;;31.04;53.20;100248.97;5055139;23;8885;-79
2021/08/19 13:01:44;;;;;;;;;27.60;27.60;;;;;30.95;54.85;100235.53;4967663;28;8853;-79
2021/08/19 13:04:12;;;;;;;;;27.20;26.40;;;;;30.70;57.67;100236.75;4974701;28;8960;-78
2021/08/19 13:06:40;;;;;;;;;27.20;25.40;;;;;30.43;59.51;100237.59;4975047;28;8873;-79
2021/08/19 13:09:08;;;;;;;;;27.00;27.00;;;;;30.22;61.37;100227.19;4988647;28;8873;-77
2021/08/19 13:11:55;;;;;;;;;26.40;26.40;;;;;30.15;63.91;100212.00;4973415;28;8850;-80
2021/08/19 13:14:23;;;;;;;;;28.00;28.00;;;;;29.98;65.10;100199.31;4974176;28;8877;-79
2021/08/19 13:17:19;;;;;;;;;30.00;29.00;;;;;30.07;64.64;100184.25;4973262;28;8969;-81
2021/08/19 13:20:17;;;;;;;;;34.60;31.20;;;;;30.02;65.76;100179.97;4974157;28;8903;-80
2021/08/19 13:22:45;;;;;;;;;30.80;29.80;;;;;30.07;65.12;100189.97;4974623;28;8884;-78
2021/08/19 13:25:41;;;;;;;;;34.20;32.00;;;;;29.97;68.32;100194.06;4974273;28;8871;-79
2021/08/19 13:28:37;;;;;;;;;30.80;29.80;;;;;29.60;71.63;100200.59;4974274;28;9617;-79
2021/08/19 13:31:04;;;;;;;;;31.60;30.60;;;;;29.27;70.14;100194.66;4975434;28;8858;-79
2021/08/19 13:33:40;;;;;;;;;33.20;30.80;;;;;29.28;72.20;100203.97;4975799;28;8889;-79
2021/08/19 13:36:08;;;;;;;;;33.80;30.60;;;;;28.87;72.34;100214.59;4975087;28;9670;-77
2021/08/19 13:38:35;;;;;;;;;40.80;32.80;;;;;28.82;74.09;100237.97;4974800;28;8850;-77
2021/08/19 13:41:31;;;;;;;;;36.80;32.80;;;;;28.92;71.55;100270.16;4974109;28;8866;-77
2021/08/19 13:43:59;;;;;;;;;34.00;31.80;;;;;28.97;74.93;100289.44;4975040;28;9051;-78
2021/08/19 13:46:28;;;;;;;;;38.60;34.40;;;;;28.91;79.05;100305.53;4975030;28;8879;-77
2021/08/19 13:49:26;;;;;;;;;39.00;34.60;;;;;28.80;79.41;100332.34;4973652;28;8882;-77
2021/08/19 13:52:17;;;;;;;;;42.60;36.80;;;;;28.24;78.94;100390.06;4974017;28;9589;-77
2021/08/19 13:54:49;;;;;;;;;31.00;29.40;;;;;27.68;72.66;100387.09;4958537;28;8862;-77
2021/08/19 13:57:45;;;;;;;;;20.00;20.00;;;;;26.73;72.23;100352.69;4973441;28;8881;-78
2021/08/19 14:00:27;;;;;;;;;13.60;13.60;;;;;25.88;71.79;100352.97;4974435;28;8890;-78
2021/08/19 14:02:56;;;;;;;;;15.60;15.60;;;;;25.56;70.43;100327.47;4975036;28;8952;-78
2021/08/19 14:05:51;;;;;;;;;11.80;11.80;;;;;25.01;70.48;100292.41;4974265;28;8882;-77
2021/08/19 14:08:48;;;;;;;;;22.80;22.40;;;;;24.59;73.14;100267.44;4974521;28;8858;-77
2021/08/19 14:11:46;;;;;;;;;47.50;39.75;;;;;24.73;73.03;100262.72;4974706;28;8901;-76
2021/08/19 14:14:23;;;;;;;;;40.25;34.25;;;;;24.79;73.55;100241.19;4974661;28;8862;-77
2021/08/19 14:17:29;;;;;;;;;32.75;30.00;;;;;24.47;70.89;100234.22;4974425;28;8913;-78
2021/08/19 14:20:24;;;;;;;;;28.20;27.40;;;;;23.70;75.58;100223.25;4973367;28;8855;-78
2021/08/19 14:22:52;;;;;;;;;35.75;33.00;;;;;24.13;77.19;100226.00;4974685;28;8858;-78
2021/08/19 14:25:28;;;;;;;;;28.00;25.80;;;;;24.42;77.87;100220.59;4974628;28;9036;-78
2021/08/19 14:28:24;;;;;;;;;30.00;28.75;;;;;24.89;77.42;100200.53;4973159;28;8861;-77
2021/08/19 14:30:51;;;;;;;;;25.00;24.40;;;;;24.98;75.89;100191.44;4974420;28;9785;-74
2021/08/19 14:33:19;;;;;;;;;32.25;30.00;;;;;25.05;76.28;100192.06;4974163;28;8862;-76
2021/08/19 14:36:05;;;;;;;;;22.00;22.00;;;;;24.86;73.91;100196.56;4973939;28;8901;-75
2021/08/19 14:39:00;;;;;;;;;22.60;22.60;;;;;24.85;77.99;100214.78;4971857;28;8866;-76
2021/08/19 14:41:56;;;;;;;;;20.60;20.60;;;;;24.90;78.52;100221.91;4971217;28;8843;-76
2021/08/19 14:44:25;;;;;;;;;19.80;19.20;;;;;25.05;77.69;100234.50;4973864;28;8865;-77
2021/08/19 14:47:20;;;;;;;;;19.80;19.80;;;;;25.05;76.72;100250.69;4971096;28;8870;-77
2021/08/19 14:50:16;;;;;;;;;11.20;11.20;;;;;25.19;74.95;100253.19;4972695;28;8853;-75
2021/08/19 14:53:17;;;;;;;;;21.40;21.40;;;;;25.30;74.48;100264.22;4966008;28;8905;-75
2021/08/19 14:55:46;;;;;;;;;15.00;15.00;;;;;25.49;74.17;100257.69;4957057;28;8933;-74
2021/08/19 14:58:14;;;;;;;;;14.60;14.60;;;;;25.60;72.68;100252.53;4973437;28;8908;-75
2021/08/19 15:01:04;;;;;;;;;17.80;17.60;;;;;25.90;72.81;100244.88;4962942;28;8834;-74
2021/08/19 15:04:02;;;;;;;;;21.80;21.80;;;;;25.84;67.31;100233.31;4976895;28;8849;-75
2021/08/19 15:06:32;;;;;;;;;15.40;14.80;;;;;25.59;65.65;100247.31;4973801;28;9608;-75
2021/08/19 15:09:20;;;;;;;;;18.20;18.20;;;;;25.77;64.95;100245.63;4976364;28;9623;-75
2021/08/19 15:11:52;;;;;;;;;40.00;31.50;;;;;25.71;64.37;100230.44;4976804;28;8869;-75
2021/08/19 15:14:20;;;;;;;;;44.80;37.40;;;;;25.77;64.23;100234.31;4976007;28;8933;-76
2021/08/19 15:17:04;;;;;;;;;29.20;28.40;;;;;25.62;65.21;100215.28;4976271;28;10040;-74
2021/08/19 15:19:36;;;;;;;;;20.20;20.20;;;;;25.48;66.75;100203.09;4976227;28;8846;-76
2021/08/19 15:22:33;;;;;;;;;17.60;15.60;;;;;25.33;63.11;100193.41;4975388;28;8880;-74
2021/08/19 15:25:02;;;;;;;;;12.80;12.80;;;;;25.39;65.55;100193.66;4960720;28;8866;-75
2021/08/19 15:27:58;;;;;;;;;12.60;12.20;;;;;25.19;64.56;100191.72;4974826;28;8868;-75
2021/08/19 15:30:26;;;;;;;;;19.40;19.00;;;;;25.35;66.38;100179.59;4976110;28;8878;-75
2021/08/19 15:32:55;;;;;;;;;9.80;9.80;;;;;24.81;62.01;100193.44;4975782;28;8916;-76
2021/08/19 15:35:27;;;;;;;;;1.40;1.40;;;;;25.22;64.18;100192.84;4977301;28;9628;-76
2021/08/19 15:38:04;;;;;;;;;12.00;11.60;;;;;25.09;64.86;100187.13;4976895;28;8866;-77
2021/08/19 15:40:59;;;;;;;;;14.60;14.60;;;;;25.18;67.25;100186.50;4972034;28;8873;-77
2021/08/19 15:43:28;;;;;;;;;8.00;7.80;;;;;25.12;63.91;100189.06;4970712;28;8865;-76
2021/08/19 15:46:24;;;;;;;;;9.80;7.60;;;;;25.00;61.78;100180.47;4983887;28;8870;-77
2021/08/19 15:49:02;;;;;;;;;6.80;6.40;;;;;24.91;62.51;100172.59;4979506;28;8854;-79
2021/08/19 15:51:49;;;;;;;;;8.60;8.20;;;;;24.65;63.76;100174.44;4976816;28;9681;-79
2021/08/19 15:54:17;;;;;;;;;9.60;9.60;;;;;24.93;65.52;100172.97;4976747;28;8917;-79
2021/08/19 15:56:59;;;;;;;;;9.60;9.00;;;;;25.08;66.92;100174.25;4973304;28;8862;-79
2021/08/19 15:59:56;;;;;;;;;12.60;12.00;;;;;24.98;63.98;100189.38;4969507;28;8881;-79
2021/08/19 16:02:51;;;;;;;;;12.40;11.60;;;;;24.94;62.10;100214.94;4974622;28;8870;-78
2021/08/19 16:05:47;;;;;;;;;9.60;9.60;;;;;24.97;65.08;100224.56;4975628;28;8906;-78
2021/08/19 16:08:19;;;;;;;;;11.40;9.00;;;;;24.95;63.74;100232.72;4976921;28;8921;-79
2021/08/19 16:11:07;;;;;;;;;13.60;13.60;;;;;24.84;66.66;100229.31;4975436;28;8901;-79
2021/08/19 16:13:35;;;;;;;;;15.20;15.00;;;;;24.80;65.66;100231.47;4975137;28;8865;-79
2021/08/19 16:16:32;;;;;;;;;16.00;15.40;;;;;24.88;64.35;100241.38;4965579;28;8867;-78
2021/08/19 16:19:18;;;;;;;;;18.20;18.00;;;;;24.91;66.79;100246.13;4974740;28;8886;-76
2021/08/19 16:21:47;;;;;;;;;61.50;47.25;;;;;24.90;63.01;100241.72;4976547;28;8934;-78
2021/08/19 16:24:15;;;;;;;;;62.25;48.25;;;;;25.03;63.86;100239.81;4972087;28;8850;-77
2021/08/19 16:26:48;;;;;;;;;53.50;42.50;;;;;25.08;62.82;100250.63;4976223;28;8846;-77
2021/08/19 16:29:43;;;;;;;;;34.80;31.40;;;;;25.21;70.23;100273.31;4966626;28;8985;-77
2021/08/19 16:32:34;;;;;;;;;44.50;38.00;;;;;25.39;68.16;100276.53;4969865;28;8941;-79
2021/08/19 16:35:02;;;;;;;;;34.60;31.60;;;;;25.41;67.58;100278.91;4965486;28;8858;-79
2021/08/19 16:37:50;;;;;;;;;24.40;24.20;;;;;25.45;67.61;100274.75;4952794;28;8877;-79
2021/08/19 16:40:23;;;;;;;;;21.20;21.20;;;;;25.66;68.19;100266.94;4976063;28;8889;-78
2021/08/19 16:42:55;;;;;;;;;24.40;23.40;;;;;25.63;65.35;100285.63;4967413;28;8851;-77
2021/08/19 16:45:23;;;;;;;;;21.40;21.40;;;;;25.41;64.29;100291.03;4970108;28;9582;-77
2021/08/19 16:48:18;;;;;;;;;11.00;11.00;;;;;25.32;63.83;100292.91;4975058;28;9631;-78
2021/08/19 16:50:47;;;;;;;;;21.00;21.00;;;;;25.61;68.24;100278.81;4974340;28;9062;-79
2021/08/19 16:53:34;;;;;;;;;9.60;9.60;;;;;25.69;65.79;100271.75;4975324;28;8935;-78
2021/08/19 16:56:04;;;;;;;;;12.40;12.40;;;;;25.67;64.72;100277.03;4971088;28;8869;-78
2021/08/19 16:58:32;;;;;;;;;12.60;11.80;;;;;25.49;64.88;100272.63;4975499;28;8893;-77
2021/08/19 17:01:04;;;;;;;;;16.80;16.80;;;;;25.56;67.63;100260.34;4975653;28;8846;-79
2021/08/19 17:03:59;;;;;;;;;14.40;14.40;;;;;25.65;66.39;100268.97;4958385;28;8858;-79
2021/08/19 17:06:48;;;;;;;;;16.80;16.80;;;;;25.41;64.25;100268.38;4969353;28;8858;-77
2021/08/19 17:09:16;;;;;;;;;16.80;16.80;;;;;25.56;65.20;100266.00;4974227;28;8963;-78
2021/08/19 17:11:52;;;;;;;;;35.75;32.25;;;;;25.39;62.81;100275.75;4972777;28;8957;-78
2021/08/19 17:14:30;;;;;;;;;44.25;36.00;;;;;25.31;62.74;100277.94;4975880;28;8873;-79
2021/08/19 17:17:26;;;;;;;;;58.25;46.75;;;;;25.16;61.89;100269.00;4955005;28;8883;-78
2021/08/19 17:20:22;;;;;;;;;53.75;43.50;;;;;25.14;63.44;100273.50;4966460;28;8854;-78
2021/08/19 17:22:56;;;;;;;;;47.50;39.00;;;;;24.98;63.23;100290.44;4965717;28;8859;-79
2021/08/19 17:25:24;;;;;;;;;43.00;36.00;;;;;25.03;64.66;100282.25;4975422;28;8862;-78
2021/08/19 17:28:20;;;;;;;;;50.00;41.75;;;;;25.01;62.56;100301.69;4957060;28;8891;-79
2021/08/19 17:30:49;;;;;;;;;44.25;36.75;;;;;25.18;66.68;100347.78;4970240;28;8878;-80
2021/08/19 17:33:45;;;;;;;;;54.25;43.00;;;;;25.57;66.84;100380.84;4967116;28;8877;-81
2021/08/19 17:36:13;;;;;;;;;40.00;32.50;;;;;25.38;64.29;100388.16;4975411;28;8870;-80
2021/08/19 17:38:53;;;;;;;;;23.00;22.40;;;;;25.43;65.96;100389.66;4975252;28;9596;-81
2021/08/19 17:41:48;;;;;;;;;20.00;20.00;;;;;25.46;64.21;100446.22;4961284;28;8866;-79
2021/08/19 17:44:30;;;;;;;;;20.60;19.60;;;;;25.09;63.74;100504.00;4974913;28;8901;-81
2021/08/19 17:47:26;;;;;;;;;20.80;18.80;;;;;24.94;65.49;100528.91;4967295;28;9586;-80
2021/08/19 17:50:21;;;;;;;;;12.00;12.00;;;;;24.69;67.09;100554.03;4969890;28;8839;-80
2021/08/19 17:52:49;;;;;;;;;15.80;15.40;;;;;24.45;68.87;100532.63;4974905;28;8940;-79
2021/08/19 17:55:22;;;;;;;;;11.20;11.20;;;;;24.32;69.80;100538.09;4973692;28;8861;-80
2021/08/19 17:58:18;;;;;;;;;23.00;22.40;;;;;24.24;71.18;100528.91;4974568;28;8881;-78
2021/08/19 18:01:06;;;;;;;;;22.40;20.60;;;;;24.22;71.20;100499.47;4974847;28;8880;-79
2021/08/19 18:04:01;;;;;;;;;23.20;22.40;;;;;24.39;71.28;100493.56;4974364;28;8877;-79
2021/08/19 18:06:28;;;;;;;;;25.80;24.40;;;;;24.48;70.54;100495.03;4974752;28;8866;-81
2021/08/19 18:09:24;;;;;;;;;18.80;18.00;;;;;24.31;71.25;100475.13;4973967;28;8854;-80
2021/08/19 18:12:20;;;;;;;;;18.00;18.00;;;;;24.02;73.34;100462.69;4967845;28;8849;-80
2021/08/19 18:14:49;;;;;;;;;17.20;16.20;;;;;23.68;73.20;100449.50;4955582;28;8979;-83
2021/08/19 18:17:44;;;;;;;;;18.40;18.40;;;;;23.90;74.35;100458.44;4954094;28;8864;-80
2021/08/19 18:20:41;;;;;;;;;14.00;14.00;;;;;23.63;74.13;100460.47;4954200;28;8870;-78
2021/08/19 18:23:13;;;;;;;;;19.60;19.60;;;;;23.43;75.58;100455.47;4969304;28;9712;-80
2021/08/19 18:26:00;;;;;;;;;23.75;23.00;;;;;23.40;76.20;100456.34;4974083;28;8862;-83